createdAt,value
2017-05-23T00:00:18.660Z,0
2017-05-23T00:01:27.623Z,0
2017-05-23T00:02:36.593Z,0
2017-05-23T00:03:45.560Z,0
2017-05-23T00:04:54.934Z,0
2017-05-23T00:06:03.897Z,0
2017-05-23T00:07:13.574Z,0
2017-05-23T00:08:22.537Z,0
2017-05-23T00:09:32.164Z,0
2017-05-23T00:10:42.736Z,0
2017-05-23T00:11:52.748Z,0
2017-05-23T00:13:01.868Z,0
2017-05-23T00:14:11.669Z,0
2017-05-23T00:15:20.633Z,0
2017-05-23T00:16:30.192Z,0
2017-05-23T00:17:39.154Z,0
2017-05-23T00:18:48.117Z,0
2017-05-23T00:19:57.079Z,0
2017-05-23T00:21:06.792Z,0
2017-05-23T00:22:16.000Z,0
2017-05-23T00:23:25.436Z,0
2017-05-23T00:24:34.486Z,0
2017-05-23T00:25:44.098Z,0
2017-05-23T00:26:53.056Z,0
2017-05-23T00:28:02.813Z,0
2017-05-23T00:29:11.778Z,0
2017-05-23T00:30:21.163Z,0
2017-05-23T00:31:30.126Z,0
2017-05-23T00:32:39.503Z,0
2017-05-23T00:33:48.769Z,0
2017-05-23T00:34:57.759Z,0
2017-05-23T00:36:07.079Z,0
2017-05-23T00:37:16.038Z,0
2017-05-23T00:38:25.093Z,0
2017-05-23T00:39:34.346Z,0
2017-05-23T00:40:43.306Z,0
2017-05-23T00:41:52.606Z,0
2017-05-23T00:43:01.974Z,0
2017-05-23T00:44:11.210Z,0
2017-05-23T00:45:20.596Z,0
2017-05-23T00:46:29.556Z,0
2017-05-23T00:47:38.873Z,0
2017-05-23T00:48:47.837Z,0
2017-05-23T00:49:56.797Z,0
2017-05-23T00:51:06.096Z,0
2017-05-23T00:52:15.087Z,0
2017-05-23T00:53:24.114Z,0
2017-05-23T00:54:33.402Z,0
2017-05-23T00:55:42.359Z,0
2017-05-23T00:56:52.136Z,0
2017-05-23T00:58:01.095Z,0
2017-05-23T00:59:10.889Z,0
2017-05-23T01:00:19.851Z,0
2017-05-23T01:01:29.496Z,0
2017-05-23T01:02:38.759Z,0
2017-05-23T01:03:48.230Z,0
2017-05-23T01:04:57.195Z,0
2017-05-23T01:06:06.155Z,0
2017-05-23T01:07:15.643Z,0
2017-05-23T01:08:24.859Z,0
2017-05-23T01:09:34.327Z,0
2017-05-23T01:10:43.373Z,0
2017-05-23T01:11:52.375Z,0
2017-05-23T01:13:01.424Z,0
2017-05-23T01:14:10.642Z,0
2017-05-23T01:15:20.055Z,0
2017-05-23T01:16:29.291Z,0
2017-05-23T01:17:38.327Z,0
2017-05-23T01:18:47.677Z,0
2017-05-23T01:19:56.888Z,0
2017-05-23T01:21:06.383Z,0
2017-05-23T01:22:15.350Z,0
2017-05-23T01:23:24.742Z,0
2017-05-23T01:24:33.706Z,0
2017-05-23T01:25:42.916Z,0
2017-05-23T01:26:51.882Z,0
2017-05-23T01:28:01.126Z,0
2017-05-23T01:29:10.091Z,0
2017-05-23T01:30:19.643Z,0
2017-05-23T01:31:28.856Z,0
2017-05-23T01:32:38.137Z,0
2017-05-23T01:33:47.102Z,0
2017-05-23T01:34:56.063Z,0
2017-05-23T01:36:05.032Z,0
2017-05-23T01:37:14.246Z,0
2017-05-23T01:38:23.319Z,0
2017-05-23T01:39:32.276Z,0
2017-05-23T01:40:41.238Z,0
2017-05-23T01:41:50.201Z,0
2017-05-23T01:42:59.414Z,0
2017-05-23T01:44:08.379Z,0
2017-05-23T01:45:17.336Z,0
2017-05-23T01:46:26.293Z,0
2017-05-23T01:47:35.251Z,0
2017-05-23T01:48:44.469Z,0
2017-05-23T01:49:53.438Z,0
2017-05-23T01:51:02.397Z,0
2017-05-23T01:52:12.011Z,0
2017-05-23T01:53:21.294Z,0
2017-05-23T01:54:30.570Z,0
2017-05-23T01:55:39.533Z,0
2017-05-23T01:56:48.491Z,0
2017-05-23T01:57:57.452Z,0
2017-05-23T01:59:06.412Z,0
2017-05-23T02:00:15.625Z,0
2017-05-23T02:01:24.590Z,0
2017-05-23T02:02:33.555Z,0
2017-05-23T02:03:42.512Z,0
2017-05-23T02:04:51.560Z,0
2017-05-23T02:06:00.796Z,0
2017-05-23T02:07:09.753Z,0
2017-05-23T02:08:18.719Z,0
2017-05-23T02:09:28.018Z,0
2017-05-23T02:10:36.980Z,0
2017-05-23T02:11:46.512Z,0
2017-05-23T02:12:55.565Z,0
2017-05-23T02:14:04.526Z,0
2017-05-23T02:15:13.815Z,0
2017-05-23T02:16:22.775Z,0
2017-05-23T02:17:31.983Z,0
2017-05-23T02:18:40.953Z,0
2017-05-23T02:19:49.912Z,0
2017-05-23T02:20:58.867Z,0
2017-05-23T02:22:07.826Z,0
2017-05-23T02:23:17.362Z,0
2017-05-23T02:24:26.328Z,0
2017-05-23T02:25:35.290Z,0
2017-05-23T02:26:44.254Z,0
2017-05-23T02:27:53.213Z,0
2017-05-23T02:29:02.430Z,0
2017-05-23T02:30:11.490Z,0
2017-05-23T02:31:20.452Z,0
2017-05-23T02:32:29.410Z,0
2017-05-23T02:33:38.695Z,4
2017-05-23T02:34:47.908Z,4
2017-05-23T02:35:56.867Z,0
2017-05-23T02:37:05.828Z,0
2017-05-23T02:38:15.123Z,4
2017-05-23T02:39:24.084Z,4
2017-05-23T02:40:33.296Z,0
2017-05-23T02:41:42.251Z,4
2017-05-23T02:42:51.229Z,4
2017-05-23T02:44:00.195Z,8
2017-05-23T02:45:09.153Z,4
2017-05-23T02:46:18.416Z,4
2017-05-23T02:47:27.415Z,8
2017-05-23T02:48:36.395Z,4
2017-05-23T02:49:45.371Z,8
2017-05-23T02:50:54.333Z,12
2017-05-23T02:52:03.592Z,8
2017-05-23T02:53:12.556Z,12
2017-05-23T02:54:21.604Z,12
2017-05-23T02:55:30.561Z,12
2017-05-23T02:56:39.515Z,16
2017-05-23T02:57:48.732Z,16
2017-05-23T02:58:57.706Z,20
2017-05-23T03:00:06.672Z,20
2017-05-23T03:01:15.970Z,24
2017-05-23T03:02:24.925Z,24
2017-05-23T03:03:34.134Z,28
2017-05-23T03:04:43.095Z,32
2017-05-23T03:05:52.056Z,32
2017-05-23T03:07:01.014Z,40
2017-05-23T03:08:09.985Z,44
2017-05-23T03:09:19.200Z,44
2017-05-23T03:10:28.165Z,52
2017-05-23T03:11:37.122Z,52
2017-05-23T03:12:46.097Z,60
2017-05-23T03:13:55.063Z,60
2017-05-23T03:15:07.769Z,64
2017-05-23T03:16:16.736Z,64
2017-05-23T03:17:25.819Z,68
2017-05-23T03:18:34.775Z,72
2017-05-23T03:19:43.739Z,76
2017-05-23T03:20:52.995Z,80
2017-05-23T03:22:01.957Z,88
2017-05-23T03:23:10.925Z,96
2017-05-23T03:24:19.885Z,100
2017-05-23T03:25:28.841Z,108
2017-05-23T03:26:38.100Z,120
2017-05-23T03:27:47.063Z,128
2017-05-23T03:28:56.024Z,132
2017-05-23T03:30:05.070Z,144
2017-05-23T03:31:14.035Z,152
2017-05-23T03:32:23.239Z,156
2017-05-23T03:33:32.200Z,164
2017-05-23T03:34:41.156Z,172
2017-05-23T03:35:50.210Z,176
2017-05-23T03:36:59.168Z,180
2017-05-23T03:38:08.377Z,192
2017-05-23T03:39:17.340Z,196
2017-05-23T03:40:26.299Z,204
2017-05-23T03:41:35.253Z,208
2017-05-23T03:42:44.206Z,220
2017-05-23T03:43:53.468Z,232
2017-05-23T03:45:02.432Z,240
2017-05-23T03:46:11.390Z,252
2017-05-23T03:47:20.352Z,264
2017-05-23T03:48:29.318Z,272
2017-05-23T03:49:38.532Z,272
2017-05-23T03:50:47.494Z,276
2017-05-23T03:51:56.539Z,284
2017-05-23T03:53:05.499Z,292
2017-05-23T03:54:14.460Z,304
2017-05-23T03:55:23.671Z,304
2017-05-23T03:56:32.628Z,296
2017-05-23T03:57:41.591Z,296
2017-05-23T03:58:50.561Z,304
2017-05-23T03:59:59.522Z,304
2017-05-23T04:01:08.735Z,308
2017-05-23T04:02:17.693Z,308
2017-05-23T04:03:26.656Z,312
2017-05-23T04:04:35.618Z,316
2017-05-23T04:05:44.578Z,324
2017-05-23T04:06:53.879Z,320
2017-05-23T04:08:02.921Z,324
2017-05-23T04:09:11.897Z,324
2017-05-23T04:10:20.867Z,332
2017-05-23T04:11:29.829Z,344
2017-05-23T04:12:39.041Z,352
2017-05-23T04:13:48.010Z,364
2017-05-23T04:14:56.977Z,368
2017-05-23T04:16:06.028Z,376
2017-05-23T04:17:14.984Z,380
2017-05-23T04:18:24.247Z,392
2017-05-23T04:19:33.209Z,396
2017-05-23T04:20:42.170Z,400
2017-05-23T04:21:51.162Z,408
2017-05-23T04:23:00.219Z,412
2017-05-23T04:24:09.521Z,416
2017-05-23T04:25:18.489Z,420
2017-05-23T04:26:27.456Z,424
2017-05-23T04:27:36.416Z,428
2017-05-23T04:28:45.385Z,432
2017-05-23T04:29:54.604Z,440
2017-05-23T04:31:03.562Z,444
2017-05-23T04:32:12.524Z,448
2017-05-23T04:33:21.485Z,468
2017-05-23T04:34:30.451Z,488
2017-05-23T04:35:39.664Z,504
2017-05-23T04:36:48.623Z,520
2017-05-23T04:37:57.582Z,532
2017-05-23T04:39:06.541Z,548
2017-05-23T04:40:15.831Z,556
2017-05-23T04:41:25.045Z,560
2017-05-23T04:42:34.005Z,568
2017-05-23T04:43:42.974Z,584
2017-05-23T04:44:51.938Z,596
2017-05-23T04:46:00.894Z,620
2017-05-23T04:47:10.102Z,632
2017-05-23T04:48:19.064Z,648
2017-05-23T04:49:28.359Z,664
2017-05-23T04:50:37.319Z,692
2017-05-23T04:51:46.281Z,716
2017-05-23T04:52:55.493Z,724
2017-05-23T04:54:04.458Z,720
2017-05-23T04:55:13.424Z,704
2017-05-23T04:56:22.383Z,716
2017-05-23T04:57:31.353Z,704
2017-05-23T04:58:40.563Z,688
2017-05-23T04:59:49.531Z,672
2017-05-23T05:00:58.561Z,664
2017-05-23T05:02:07.523Z,664
2017-05-23T05:03:16.484Z,668
2017-05-23T05:04:25.752Z,676
2017-05-23T05:05:34.861Z,688
2017-05-23T05:06:43.823Z,700
2017-05-23T05:07:52.875Z,704
2017-05-23T05:09:01.881Z,732
2017-05-23T05:10:11.095Z,744
2017-05-23T05:11:20.065Z,752
2017-05-23T05:12:29.027Z,756
2017-05-23T05:13:37.991Z,768
2017-05-23T05:14:46.954Z,788
2017-05-23T05:15:56.162Z,804
2017-05-23T05:17:05.131Z,812
2017-05-23T05:18:14.102Z,788
2017-05-23T05:19:23.077Z,820
2017-05-23T05:20:32.053Z,836
2017-05-23T05:21:41.264Z,848
2017-05-23T05:22:50.550Z,864
2017-05-23T05:23:59.506Z,868
2017-05-23T05:25:08.466Z,872
2017-05-23T05:26:17.604Z,876
2017-05-23T05:27:26.812Z,884
2017-05-23T05:28:35.861Z,884
2017-05-23T05:29:44.823Z,876
2017-05-23T05:30:53.875Z,888
2017-05-23T05:32:02.835Z,904
2017-05-23T05:33:12.098Z,916
2017-05-23T05:34:21.060Z,928
2017-05-23T05:35:30.076Z,940
2017-05-23T05:36:39.036Z,940
2017-05-23T05:37:47.997Z,924
2017-05-23T05:38:57.213Z,892
2017-05-23T05:40:06.175Z,892
2017-05-23T05:41:15.134Z,888
2017-05-23T05:42:24.425Z,884
2017-05-23T05:43:33.392Z,872
2017-05-23T05:44:42.655Z,856
2017-05-23T05:45:51.610Z,840
2017-05-23T05:47:00.658Z,796
2017-05-23T05:48:09.618Z,744
2017-05-23T05:49:18.584Z,720
2017-05-23T05:50:27.846Z,720
2017-05-23T05:51:36.811Z,704
2017-05-23T05:52:45.786Z,708
2017-05-23T05:53:54.746Z,732
2017-05-23T05:55:03.708Z,752
2017-05-23T05:56:13.063Z,760
2017-05-23T05:57:22.027Z,768
2017-05-23T05:58:30.992Z,776
2017-05-23T05:59:40.043Z,796
2017-05-23T06:00:49.003Z,820
2017-05-23T06:01:58.214Z,840
2017-05-23T06:03:07.174Z,892
2017-05-23T06:04:16.132Z,964
2017-05-23T06:05:25.093Z,1120
2017-05-23T06:06:34.060Z,1124
2017-05-23T06:07:43.412Z,1028
2017-05-23T06:08:52.377Z,964
2017-05-23T06:10:01.341Z,956
2017-05-23T06:11:10.306Z,956
2017-05-23T06:12:19.285Z,972
2017-05-23T06:13:28.499Z,980
2017-05-23T06:14:37.461Z,996
2017-05-23T06:15:46.427Z,1000
2017-05-23T06:16:55.392Z,1016
2017-05-23T06:18:04.358Z,1032
2017-05-23T06:19:13.661Z,1052
2017-05-23T06:20:22.642Z,1068
2017-05-23T06:21:31.707Z,1076
2017-05-23T06:22:40.777Z,1076
2017-05-23T06:23:49.766Z,1068
2017-05-23T06:24:59.051Z,1084
2017-05-23T06:26:08.035Z,1088
2017-05-23T06:27:17.018Z,1144
2017-05-23T06:28:25.999Z,1188
2017-05-23T06:29:34.989Z,1076
2017-05-23T06:30:44.273Z,1096
2017-05-23T06:31:53.588Z,1108
2017-05-23T06:33:02.577Z,1148
2017-05-23T06:34:11.567Z,1156
2017-05-23T06:35:20.548Z,1168
2017-05-23T06:36:29.833Z,1164
2017-05-23T06:37:38.816Z,1176
2017-05-23T06:38:47.809Z,1188
2017-05-23T06:39:56.802Z,1208
2017-05-23T06:41:05.788Z,1212
2017-05-23T06:42:15.071Z,1216
2017-05-23T06:43:24.050Z,1228
2017-05-23T06:44:33.044Z,1256
2017-05-23T06:45:42.065Z,1304
2017-05-23T06:46:51.055Z,1336
2017-05-23T06:48:00.439Z,1348
2017-05-23T06:49:09.430Z,1384
2017-05-23T06:50:18.415Z,1428
2017-05-23T06:51:27.490Z,1444
2017-05-23T06:52:36.495Z,1440
2017-05-23T06:53:45.949Z,1424
2017-05-23T06:54:54.938Z,1396
2017-05-23T06:56:03.933Z,1460
2017-05-23T06:57:12.929Z,1452
2017-05-23T06:58:21.897Z,1428
2017-05-23T06:59:31.163Z,1392
2017-05-23T07:00:40.121Z,1364
2017-05-23T07:01:50.011Z,1396
2017-05-23T07:03:00.592Z,1404
2017-05-23T07:04:09.873Z,1416
2017-05-23T07:05:19.092Z,1428
2017-05-23T07:06:28.054Z,1440
2017-05-23T07:07:37.104Z,1448
2017-05-23T07:08:46.074Z,1464
2017-05-23T07:09:55.043Z,1508
2017-05-23T07:11:04.309Z,1556
2017-05-23T07:12:13.270Z,1608
2017-05-23T07:13:22.233Z,1656
2017-05-23T07:14:31.195Z,1708
2017-05-23T07:15:40.152Z,1764
2017-05-23T07:16:49.383Z,1804
2017-05-23T07:17:58.351Z,1796
2017-05-23T07:19:07.315Z,1756
2017-05-23T07:20:16.279Z,1684
2017-05-23T07:21:25.812Z,1636
2017-05-23T07:22:35.674Z,1600
2017-05-23T07:23:45.418Z,1572
2017-05-23T07:24:54.505Z,1596
2017-05-23T07:26:03.470Z,1672
2017-05-23T07:27:12.429Z,1736
2017-05-23T07:28:21.692Z,1808
2017-05-23T07:29:30.658Z,1880
2017-05-23T07:30:39.628Z,1928
2017-05-23T07:31:48.590Z,1964
2017-05-23T07:32:57.563Z,2040
2017-05-23T07:34:06.830Z,2108
2017-05-23T07:35:15.790Z,2152
2017-05-23T07:36:24.746Z,2284
2017-05-23T07:37:33.711Z,2332
2017-05-23T07:38:42.680Z,2244
2017-05-23T07:39:52.120Z,2228
2017-05-23T07:41:01.082Z,2176
2017-05-23T07:42:10.046Z,2116
2017-05-23T07:43:19.012Z,2024
2017-05-23T07:44:27.982Z,1948
2017-05-23T07:45:37.577Z,1796
2017-05-23T07:46:46.601Z,1664
2017-05-23T07:47:55.580Z,1588
2017-05-23T07:49:04.546Z,1624
2017-05-23T07:50:13.842Z,1560
2017-05-23T07:51:23.427Z,1636
2017-05-23T07:52:32.386Z,1836
2017-05-23T07:53:41.352Z,1884
2017-05-23T07:54:50.324Z,1864
2017-05-23T07:55:59.610Z,1844
2017-05-23T07:57:08.838Z,1880
2017-05-23T07:58:17.802Z,1916
2017-05-23T07:59:26.769Z,1948
2017-05-23T08:00:35.727Z,1920
2017-05-23T08:01:44.691Z,1892
2017-05-23T08:02:53.955Z,1892
2017-05-23T08:04:04.727Z,1916
2017-05-23T08:05:13.701Z,2024
2017-05-23T08:06:22.660Z,2092
2017-05-23T08:07:31.626Z,2156
2017-05-23T08:08:41.165Z,2248
2017-05-23T08:09:50.138Z,2300
2017-05-23T08:10:59.106Z,2248
2017-05-23T08:12:08.072Z,2232
2017-05-23T08:13:17.041Z,2216
2017-05-23T08:14:26.316Z,2388
2017-05-23T08:15:35.315Z,2336
2017-05-23T08:16:44.280Z,2388
2017-05-23T08:17:53.243Z,2552
2017-05-23T08:19:02.208Z,2688
2017-05-23T08:20:11.421Z,2824
2017-05-23T08:21:20.386Z,3040
2017-05-23T08:22:29.356Z,3196
2017-05-23T08:23:38.364Z,3192
2017-05-23T08:24:47.333Z,2840
2017-05-23T08:25:56.598Z,3032
2017-05-23T08:27:05.562Z,3260
2017-05-23T08:28:14.529Z,3388
2017-05-23T08:29:23.582Z,3480
2017-05-23T08:30:32.542Z,3300
2017-05-23T08:31:41.750Z,3340
2017-05-23T08:32:50.715Z,3188
2017-05-23T08:33:59.695Z,3252
2017-05-23T08:35:08.658Z,3412
2017-05-23T08:36:17.623Z,3520
2017-05-23T08:37:26.886Z,3520
2017-05-23T08:38:35.851Z,3540
2017-05-23T08:39:44.865Z,3440
2017-05-23T08:40:53.836Z,3472
2017-05-23T08:42:02.810Z,3584
2017-05-23T08:43:12.074Z,3664
2017-05-23T08:44:21.042Z,3688
2017-05-23T08:45:30.117Z,3472
2017-05-23T08:46:39.086Z,3456
2017-05-23T08:47:48.386Z,3268
2017-05-23T08:48:57.992Z,3172
2017-05-23T08:50:06.961Z,3372
2017-05-23T08:51:16.259Z,3456
2017-05-23T08:52:25.222Z,3456
2017-05-23T08:53:34.188Z,3352
2017-05-23T08:54:43.404Z,3276
2017-05-23T08:55:52.365Z,3020
2017-05-23T08:57:01.333Z,2704
2017-05-23T08:58:10.294Z,2500
2017-05-23T08:59:19.262Z,2648
2017-05-23T09:00:28.494Z,2692
2017-05-23T09:01:37.502Z,2812
2017-05-23T09:02:46.581Z,2776
2017-05-23T09:03:55.550Z,2728
2017-05-23T09:05:05.750Z,2696
2017-05-23T09:06:15.194Z,2724
2017-05-23T09:07:24.368Z,2772
2017-05-23T09:08:33.569Z,2900
2017-05-23T09:09:42.708Z,2800
2017-05-23T09:10:52.236Z,2912
2017-05-23T09:12:01.869Z,2940
2017-05-23T09:13:11.099Z,2760
2017-05-23T09:14:20.371Z,2768
2017-05-23T09:15:29.755Z,2868
2017-05-23T09:16:38.915Z,3064
2017-05-23T09:17:48.503Z,2628
2017-05-23T09:18:57.611Z,2512
2017-05-23T09:20:06.843Z,2704
2017-05-23T09:21:16.260Z,3088
2017-05-23T09:22:25.429Z,3300
2017-05-23T09:23:34.886Z,2336
2017-05-23T09:24:44.012Z,2292
2017-05-23T09:25:53.051Z,2148
2017-05-23T09:27:02.172Z,1920
2017-05-23T09:28:11.341Z,1544
2017-05-23T09:29:21.592Z,1316
2017-05-23T09:30:30.753Z,1360
2017-05-23T09:31:40.259Z,1276
2017-05-23T09:32:49.489Z,1496
2017-05-23T09:33:58.804Z,1800
2017-05-23T09:35:08.324Z,2780
2017-05-23T09:36:17.649Z,2860
2017-05-23T09:37:26.888Z,2404
2017-05-23T09:38:36.195Z,1588
2017-05-23T09:39:45.611Z,2020
2017-05-23T09:40:55.301Z,2428
2017-05-23T09:42:04.544Z,2120
2017-05-23T09:43:13.650Z,1916
2017-05-23T09:44:23.120Z,2556
2017-05-23T09:45:32.263Z,1580
2017-05-23T09:46:41.810Z,2096
2017-05-23T09:47:50.984Z,2092
2017-05-23T09:49:00.143Z,2100
2017-05-23T09:50:09.696Z,2216
2017-05-23T09:51:19.581Z,2112
2017-05-23T09:52:29.355Z,2124
2017-05-23T09:53:38.773Z,2060
2017-05-23T09:54:47.904Z,2016
2017-05-23T09:55:57.023Z,1992
2017-05-23T09:57:06.075Z,1932
2017-05-23T09:58:15.620Z,2024
2017-05-23T09:59:24.735Z,2172
2017-05-23T10:00:33.898Z,2152
2017-05-23T10:01:43.162Z,2100
2017-05-23T10:02:52.362Z,2080
2017-05-23T10:04:01.841Z,2076
2017-05-23T10:05:10.806Z,2040
2017-05-23T10:06:19.776Z,2040
2017-05-23T10:07:29.067Z,1968
2017-05-23T10:08:38.032Z,1948
2017-05-23T10:09:47.248Z,1968
2017-05-23T10:10:56.211Z,1220
2017-05-23T10:12:05.180Z,1076
2017-05-23T10:13:14.238Z,1044
2017-05-23T10:14:23.207Z,1376
2017-05-23T10:15:32.429Z,1340
2017-05-23T10:16:41.444Z,2596
2017-05-23T10:17:50.413Z,2960
2017-05-23T10:18:59.381Z,3172
2017-05-23T10:20:08.344Z,2476
2017-05-23T10:21:17.704Z,2568
2017-05-23T10:22:26.667Z,2324
2017-05-23T10:23:35.646Z,2088
2017-05-23T10:24:44.846Z,2184
2017-05-23T10:25:54.740Z,2068
2017-05-23T10:27:05.922Z,2016
2017-05-23T10:28:15.021Z,2048
2017-05-23T10:29:24.000Z,2076
2017-05-23T10:30:32.966Z,2104
2017-05-23T10:31:41.933Z,2116
2017-05-23T10:32:51.149Z,2108
2017-05-23T10:34:00.138Z,2068
2017-05-23T10:35:09.193Z,2064
2017-05-23T10:36:18.160Z,1924
2017-05-23T10:37:27.129Z,2068
2017-05-23T10:38:36.347Z,2148
2017-05-23T10:39:45.311Z,2024
2017-05-23T10:40:54.280Z,1916
2017-05-23T10:42:03.246Z,1952
2017-05-23T10:43:12.210Z,1972
2017-05-23T10:44:21.434Z,2512
2017-05-23T10:45:30.721Z,2436
2017-05-23T10:46:39.682Z,2284
2017-05-23T10:47:48.653Z,2308
2017-05-23T10:48:57.617Z,2032
2017-05-23T10:50:06.827Z,1960
2017-05-23T10:51:15.790Z,2016
2017-05-23T10:52:24.760Z,1168
2017-05-23T10:53:33.719Z,1132
2017-05-23T10:54:42.691Z,1356
2017-05-23T10:55:52.238Z,1196
2017-05-23T10:57:01.205Z,1160
2017-05-23T10:58:10.167Z,1480
2017-05-23T10:59:19.138Z,2776
2017-05-23T11:00:28.111Z,3164
2017-05-23T11:01:37.466Z,2808
2017-05-23T11:02:46.455Z,2788
2017-05-23T11:03:55.513Z,2704
2017-05-23T11:05:04.479Z,2160
2017-05-23T11:06:13.778Z,1968
2017-05-23T11:07:23.107Z,1840
2017-05-23T11:08:32.078Z,1472
2017-05-23T11:09:41.098Z,1956
2017-05-23T11:10:50.064Z,2172
2017-05-23T11:11:59.115Z,2664
2017-05-23T11:13:08.384Z,2160
2017-05-23T11:14:17.353Z,1812
2017-05-23T11:15:26.508Z,1708
2017-05-23T11:16:35.475Z,1668
2017-05-23T11:17:44.442Z,1712
2017-05-23T11:18:54.054Z,1676
2017-05-23T11:20:03.113Z,1624
2017-05-23T11:21:12.113Z,1664
2017-05-23T11:22:21.108Z,1684
2017-05-23T11:23:30.105Z,1704
2017-05-23T11:24:39.392Z,1744
2017-05-23T11:25:48.470Z,1624
2017-05-23T11:26:57.463Z,1544
2017-05-23T11:28:06.519Z,1544
2017-05-23T11:29:15.516Z,1496
2017-05-23T11:30:24.818Z,1484
2017-05-23T11:31:33.811Z,1484
2017-05-23T11:32:42.807Z,1484
2017-05-23T11:33:51.960Z,1560
2017-05-23T11:35:01.273Z,1536
2017-05-23T11:36:10.515Z,1496
2017-05-23T11:37:19.507Z,1496
2017-05-23T11:38:28.505Z,1476
2017-05-23T11:39:37.499Z,1480
2017-05-23T11:40:46.487Z,1500
2017-05-23T11:41:55.819Z,1496
2017-05-23T11:43:04.894Z,1492
2017-05-23T11:44:13.877Z,1460
2017-05-23T11:45:23.365Z,1460
2017-05-23T11:46:32.517Z,1452
2017-05-23T11:47:41.912Z,1460
2017-05-23T11:48:50.892Z,1448
2017-05-23T11:49:59.868Z,1468
2017-05-23T11:51:08.848Z,1516
2017-05-23T11:52:17.822Z,1528
2017-05-23T11:53:27.044Z,1572
2017-05-23T11:54:36.100Z,1552
2017-05-23T11:55:45.066Z,1096
2017-05-23T11:56:54.043Z,1956
2017-05-23T11:58:03.464Z,1788
2017-05-23T11:59:12.752Z,1500
2017-05-23T12:00:21.770Z,1488
2017-05-23T12:01:31.066Z,1492
2017-05-23T12:02:40.031Z,1492
2017-05-23T12:03:48.997Z,1428
2017-05-23T12:04:58.217Z,1508
2017-05-23T12:06:07.182Z,1576
2017-05-23T12:07:16.143Z,1592
2017-05-23T12:08:25.109Z,1476
2017-05-23T12:09:34.082Z,1412
2017-05-23T12:10:43.386Z,1408
2017-05-23T12:11:52.675Z,1396
2017-05-23T12:13:01.641Z,1380
2017-05-23T12:14:10.607Z,1444
2017-05-23T12:15:19.569Z,1428
2017-05-23T12:16:28.788Z,1536
2017-05-23T12:17:37.748Z,1472
2017-05-23T12:18:46.715Z,1444
2017-05-23T12:19:55.696Z,1472
2017-05-23T12:21:04.658Z,1416
2017-05-23T12:22:14.011Z,1380
2017-05-23T12:23:22.976Z,1436
2017-05-23T12:24:31.942Z,1400
2017-05-23T12:25:40.901Z,1392
2017-05-23T12:26:49.958Z,1324
2017-05-23T12:27:59.550Z,1256
2017-05-23T12:29:08.521Z,1296
2017-05-23T12:30:17.489Z,1316
2017-05-23T12:31:26.452Z,1324
2017-05-23T12:32:35.416Z,1340
2017-05-23T12:33:44.774Z,1372
2017-05-23T12:34:53.743Z,1400
2017-05-23T12:36:02.711Z,1444
2017-05-23T12:37:11.672Z,1412
2017-05-23T12:38:20.637Z,1340
2017-05-23T12:39:29.857Z,1336
2017-05-23T12:40:38.827Z,1352
2017-05-23T12:41:47.796Z,1384
2017-05-23T12:42:56.886Z,1416
2017-05-23T12:44:05.935Z,1440
2017-05-23T12:45:15.154Z,1428
2017-05-23T12:46:24.132Z,1548
2017-05-23T12:47:33.100Z,1332
2017-05-23T12:48:42.071Z,1288
2017-05-23T12:49:51.043Z,1196
2017-05-23T12:51:00.313Z,1564
2017-05-23T12:52:09.313Z,1568
2017-05-23T12:53:18.607Z,1592
2017-05-23T12:54:27.576Z,1652
2017-05-23T12:55:36.539Z,1424
2017-05-23T12:56:45.856Z,1168
2017-05-23T12:57:54.862Z,1028
2017-05-23T12:59:03.945Z,1300
2017-05-23T13:00:13.306Z,1028
2017-05-23T13:01:22.375Z,1264
2017-05-23T13:02:31.794Z,996
2017-05-23T13:03:40.784Z,1260
2017-05-23T13:04:49.865Z,1500
2017-05-23T13:05:58.871Z,1472
2017-05-23T13:07:07.840Z,1768
2017-05-23T13:08:17.103Z,1760
2017-05-23T13:09:26.071Z,1940
2017-05-23T13:10:35.041Z,2152
2017-05-23T13:11:44.005Z,2332
2017-05-23T13:12:53.076Z,2296
2017-05-23T13:14:02.371Z,2264
2017-05-23T13:15:11.333Z,1840
2017-05-23T13:16:20.303Z,2000
2017-05-23T13:17:29.274Z,1872
2017-05-23T13:18:38.248Z,2288
2017-05-23T13:19:47.471Z,2264
2017-05-23T13:20:56.441Z,2264
2017-05-23T13:22:05.421Z,2268
2017-05-23T13:23:14.390Z,2064
2017-05-23T13:24:23.371Z,2036
2017-05-23T13:25:32.586Z,2000
2017-05-23T13:26:41.635Z,2088
2017-05-23T13:27:50.691Z,2200
2017-05-23T13:28:59.659Z,2276
2017-05-23T13:30:08.627Z,2316
2017-05-23T13:31:17.932Z,2508
2017-05-23T13:32:27.233Z,2660
2017-05-23T13:33:36.205Z,2392
2017-05-23T13:34:45.172Z,2764
2017-05-23T13:35:54.140Z,2620
2017-05-23T13:37:03.358Z,2476
2017-05-23T13:38:12.327Z,2468
2017-05-23T13:39:21.297Z,2216
2017-05-23T13:40:30.296Z,2320
2017-05-23T13:41:39.267Z,2272
2017-05-23T13:42:48.509Z,2324
2017-05-23T13:43:57.481Z,2548
2017-05-23T13:45:06.449Z,2300
2017-05-23T13:46:15.416Z,1544
2017-05-23T13:47:24.711Z,1360
2017-05-23T13:48:33.980Z,1272
2017-05-23T13:49:42.951Z,1244
2017-05-23T13:50:51.916Z,1252
2017-05-23T13:52:00.977Z,1248
2017-05-23T13:53:09.943Z,1356
2017-05-23T13:54:19.168Z,1476
2017-05-23T13:55:28.135Z,1432
2017-05-23T13:56:37.112Z,1356
2017-05-23T13:57:46.082Z,1480
2017-05-23T13:58:55.116Z,1600
2017-05-23T14:00:04.424Z,1968
2017-05-23T14:01:13.400Z,1672
2017-05-23T14:02:22.368Z,1548
2017-05-23T14:03:31.331Z,1368
2017-05-23T14:04:40.292Z,1840
2017-05-23T14:05:49.645Z,1936
2017-05-23T14:06:58.939Z,2124
2017-05-23T14:08:08.018Z,2196
2017-05-23T14:09:16.980Z,2352
2017-05-23T14:10:25.944Z,2244
2017-05-23T14:11:35.479Z,2048
2017-05-23T14:12:44.454Z,1852
2017-05-23T14:13:53.418Z,1656
2017-05-23T14:15:02.385Z,1708
2017-05-23T14:16:11.354Z,1748
2017-05-23T14:17:20.574Z,1460
2017-05-23T14:18:29.544Z,1244
2017-05-23T14:19:38.511Z,1180
2017-05-23T14:20:47.472Z,1152
2017-05-23T14:21:56.435Z,1132
2017-05-23T14:23:05.927Z,1136
2017-05-23T14:24:15.273Z,1264
2017-05-23T14:25:24.242Z,1276
2017-05-23T14:26:33.213Z,1448
2017-05-23T14:27:42.178Z,1276
2017-05-23T14:28:51.399Z,1236
2017-05-23T14:30:00.371Z,1244
2017-05-23T14:31:09.338Z,1312
2017-05-23T14:32:18.304Z,1172
2017-05-23T14:33:27.271Z,1340
2017-05-23T14:34:36.545Z,1368
2017-05-23T14:35:45.520Z,1440
2017-05-23T14:36:54.484Z,1416
2017-05-23T14:38:03.456Z,1464
2017-05-23T14:39:12.425Z,1532
2017-05-23T14:40:21.640Z,1480
2017-05-23T14:41:30.603Z,1568
2017-05-23T14:42:39.566Z,1516
2017-05-23T14:43:48.620Z,1544
2017-05-23T14:44:57.675Z,1664
2017-05-23T14:46:07.034Z,1852
2017-05-23T14:47:15.997Z,1720
2017-05-23T14:48:24.973Z,1708
2017-05-23T14:49:33.942Z,1616
2017-05-23T14:50:42.905Z,1560
2017-05-23T14:51:52.133Z,1384
2017-05-23T14:53:01.099Z,1364
2017-05-23T14:54:10.155Z,1428
2017-05-23T14:55:19.207Z,1432
2017-05-23T14:56:28.166Z,1404
2017-05-23T14:57:37.384Z,1480
2017-05-23T14:58:46.361Z,1276
2017-05-23T14:59:55.327Z,1240
2017-05-23T15:01:04.378Z,1148
2017-05-23T15:02:13.526Z,1420
2017-05-23T15:03:22.787Z,1580
2017-05-23T15:04:31.847Z,1372
2017-05-23T15:05:40.810Z,1372
2017-05-23T15:06:49.779Z,1392
2017-05-23T15:07:58.741Z,1364
2017-05-23T15:09:08.083Z,1224
2017-05-23T15:10:17.060Z,1236
2017-05-23T15:11:26.032Z,1216
2017-05-23T15:12:35.006Z,1340
2017-05-23T15:13:43.972Z,1240
2017-05-23T15:14:53.241Z,1340
2017-05-23T15:16:02.211Z,1520
2017-05-23T15:17:11.176Z,1364
2017-05-23T15:18:20.146Z,1332
2017-05-23T15:19:29.109Z,1352
2017-05-23T15:20:38.325Z,1392
2017-05-23T15:21:48.098Z,1236
2017-05-23T15:22:58.379Z,1184
2017-05-23T15:24:08.060Z,1228
2017-05-23T15:25:17.091Z,1308
2017-05-23T15:26:26.309Z,1264
2017-05-23T15:27:35.460Z,1220
2017-05-23T15:28:44.429Z,1132
2017-05-23T15:29:54.639Z,1080
2017-05-23T15:31:04.641Z,1044
2017-05-23T15:32:13.919Z,976
2017-05-23T15:33:22.903Z,904
2017-05-23T15:34:31.872Z,868
2017-05-23T15:35:40.840Z,856
2017-05-23T15:36:49.807Z,840
2017-05-23T15:37:59.116Z,836
2017-05-23T15:39:08.085Z,840
2017-05-23T15:40:17.137Z,844
2017-05-23T15:41:26.259Z,812
2017-05-23T15:42:35.582Z,808
2017-05-23T15:43:45.023Z,832
2017-05-23T15:44:54.003Z,836